createdAt,value
2022-10-22T00:01:52.479Z,100
2022-10-22T00:11:52.945Z,100
2022-10-22T00:21:54.034Z,100
2022-10-22T00:41:54.860Z,100
2022-10-22T00:51:55.441Z,100
2022-10-22T01:01:56.474Z,100
2022-10-22T01:11:57.085Z,100
2022-10-22T01:31:58.504Z,100
2022-10-22T01:41:59.597Z,100
2022-10-22T02:02:01.098Z,100
2022-10-22T02:12:01.548Z,100
2022-10-22T02:22:02.486Z,100
2022-10-22T02:32:02.597Z,100
2022-10-22T03:22:05.211Z,100
2022-10-22T03:32:06.106Z,100
2022-10-22T03:42:06.963Z,100
2022-10-22T03:52:07.485Z,100
2022-10-22T04:22:09.713Z,100
2022-10-22T04:32:09.868Z,100
2022-10-22T04:42:10.571Z,100
2022-10-22T04:52:11.092Z,100
2022-10-22T05:02:11.593Z,100
2022-10-22T05:22:12.187Z,100
2022-10-22T05:52:14.610Z,100
2022-10-22T06:32:17.364Z,100
2022-10-22T06:42:18.439Z,100
2022-10-22T06:52:19.116Z,100
2022-10-22T07:22:19.978Z,100
2022-10-22T07:32:23.638Z,100
2022-10-22T08:22:24.386Z,100
2022-10-22T08:42:26.109Z,100
2022-10-22T08:52:26.483Z,98
2022-10-22T09:12:27.755Z,96
2022-10-22T09:22:27.977Z,95
2022-10-22T09:32:28.724Z,95
2022-10-22T09:42:28.875Z,94
2022-10-22T09:52:29.631Z,93
2022-10-22T10:12:30.806Z,91
2022-10-22T10:22:31.254Z,91
2022-10-22T10:32:32.057Z,90
2022-10-22T10:42:32.825Z,89
2022-10-22T10:52:33.120Z,89
2022-10-22T11:02:33.912Z,88
2022-10-22T11:12:34.623Z,89
2022-10-22T11:22:35.392Z,90
2022-10-22T11:42:36.951Z,91
2022-10-22T11:52:37.463Z,91
2022-10-22T12:02:38.184Z,89
2022-10-22T12:12:39.031Z,88
2022-10-22T12:22:39.893Z,88
2022-10-22T12:32:40.156Z,88
2022-10-22T12:42:40.815Z,88
2022-10-22T12:52:41.586Z,88
2022-10-22T13:02:42.267Z,88
2022-10-22T13:12:42.898Z,88
2022-10-22T13:22:43.385Z,88
2022-10-22T13:32:43.588Z,87
2022-10-22T13:42:44.359Z,88
2022-10-22T14:02:45.802Z,88
2022-10-22T14:12:49.480Z,87
2022-10-22T14:22:47.437Z,86
2022-10-22T14:32:47.959Z,86
2022-10-22T14:42:48.825Z,87
2022-10-22T14:52:49.584Z,87
2022-10-22T15:02:50.305Z,86
2022-10-22T15:12:51.132Z,87
2022-10-22T15:22:51.926Z,87
2022-10-22T15:32:52.362Z,88
2022-10-22T15:42:52.645Z,88
2022-10-22T16:02:53.094Z,91
2022-10-22T16:22:54.607Z,92
2022-10-22T16:32:55.011Z,93
2022-10-22T16:52:56.863Z,95
2022-10-22T17:02:57.502Z,96
2022-10-22T17:12:57.616Z,97
2022-10-22T17:22:58.111Z,98
2022-10-22T17:32:59.126Z,100
2022-10-22T17:43:00.120Z,100
2022-10-22T17:53:00.453Z,100
2022-10-22T18:03:01.102Z,100
2022-10-22T18:13:01.366Z,100
2022-10-22T18:23:01.780Z,100
2022-10-22T18:33:02.694Z,100
2022-10-22T18:43:03.299Z,100
2022-10-22T18:53:03.597Z,100
2022-10-22T19:03:04.369Z,100
2022-10-22T19:13:04.726Z,100
2022-10-22T19:43:05.330Z,100
2022-10-22T19:53:06.114Z,100
2022-10-22T20:03:06.646Z,100
2022-10-22T20:13:07.437Z,100
2022-10-22T20:23:07.810Z,100
2022-10-22T20:33:08.091Z,100
2022-10-22T20:43:10.450Z,100
2022-10-22T20:53:10.600Z,100
2022-10-22T21:03:09.231Z,100
2022-10-22T21:13:09.533Z,100
2022-10-22T21:23:10.254Z,100
2022-10-22T21:33:10.791Z,100
2022-10-22T21:43:11.478Z,100
2022-10-22T22:03:12.167Z,100
2022-10-22T22:13:12.794Z,100
2022-10-22T22:23:13.233Z,100
2022-10-22T22:33:13.518Z,100
2022-10-22T22:43:13.722Z,100
2022-10-22T23:03:15.655Z,100
2022-10-22T23:13:16.139Z,100
2022-10-22T23:23:16.519Z,100
2022-10-22T23:43:17.288Z,100
2022-10-22T23:53:17.505Z,100
